Reklama

Seznam meteostanic a jejich METAR

Vyhledat místa podle abecedy:
A B C D E F G H I J K L M N O P Q R S T U V W X Y Z

Filtrovat:

ID stanice:
a/nebo
Název místa (fulltext):
 
Místo (ID)Naposledy načteno 
Brno - Tuřany (Brno/Tu) 08.04.2020 22:00 UTC Zobrazit data
Místo: Brno - Tuřany
Teplota: 12 °C (pocitová: 8.7 °C)
Vítr: 3 m/s z(e) 40°
Počasí: slunečno
Dohlednost: 40 km
Zákl. oblačnosti: N/A
Vlhkost: 28%
Červená - Opava (Cervena/uL) 08.04.2020 22:00 UTC Zobrazit data
Místo: Červená - Opava
Teplota: 10 °C (pocitová: 5.3 °C)
Vítr: 4 m/s z(e) 210°
Počasí:
Dohlednost: 35 km
Zákl. oblačnosti: N/A
Vlhkost: 30%
České Budějovice (C.Budej/po) 08.04.2020 22:00 UTC Zobrazit data
Místo: České Budějovice
Teplota: 7 °C (pocitová: 4.3 °C)
Vítr: 1 m/s z(e) 210°
Počasí: skorojasno
Dohlednost: 35 km
Zákl. oblačnosti: 1/8 6300 m
Vlhkost: 53%
Cheb (Cheb) 08.04.2020 22:00 UTC Zobrazit data
Místo: Cheb
Teplota: 9 °C (pocitová: 5.6 °C)
Vítr: 2 m/s z(e) 200°
Počasí:
Dohlednost: 35 km
Zákl. oblačnosti: N/A
Vlhkost: 58%
Chotusice - Čáslav (Caslav) 08.04.2020 22:00 UTC Zobrazit data
Místo: Chotusice - Čáslav
Teplota: 10 °C (pocitová: 6.9 °C)
Vítr: 2 m/s z(e) 120°
Počasí: slunečno
Dohlednost: 20 km
Zákl. oblačnosti: N/A
Vlhkost: 35%
Churáňov (Churanov) 08.04.2020 22:00 UTC Zobrazit data
Místo: Churáňov
Teplota: 6 °C (pocitová: 1.8 °C)
Vítr: 2 m/s z(e) 210°
Počasí:
Dohlednost: 35 km
Zákl. oblačnosti: N/A
Vlhkost: 46%
Doksany - Litoměřice (Doksany) 08.04.2020 22:00 UTC Zobrazit data
Místo: Doksany - Litoměřice
Teplota: 3 °C (pocitová: -0.6 °C)
Vítr: 1 m/s z(e) 180°
Počasí:
Dohlednost: 14 km
Zákl. oblačnosti: N/A
Vlhkost: 70%
Dukovany (Dukovany) 08.04.2020 22:00 UTC Zobrazit data
Místo: Dukovany
Teplota: 9 °C (pocitová: 6.8 °C)
Vítr: 1 m/s z(e) 0°
Počasí:
Dohlednost: 25 km
Zákl. oblačnosti: N/A
Vlhkost: 34%
Holešov (Holesov) 08.04.2020 22:00 UTC Zobrazit data
Místo: Holešov
Teplota: 4 °C (pocitová: 15.6 °C)
Vítr: 0 m/s z(e) 0°
Počasí:
Dohlednost: 35 km
Zákl. oblačnosti: N/A
Vlhkost: 61%
Kadaň - Tušimice (Tusimice) 08.04.2020 22:00 UTC Zobrazit data
Místo: Kadaň - Tušimice
Teplota: 7 °C (pocitová: 2 °C)
Vítr: 3 m/s z(e) 260°
Počasí:
Dohlednost: 30 km
Zákl. oblačnosti: N/A
Vlhkost: 61%
Karlovy Vary (K.Vary) 08.04.2020 22:00 UTC Zobrazit data
Místo: Karlovy Vary
Teplota: 6 °C (pocitová: 1.8 °C)
Vítr: 2 m/s z(e) 210°
Počasí: slunečno
Dohlednost: 40 km
Zákl. oblačnosti: N/A
Vlhkost: 57%
Kocelovice (Kocelovice) 08.04.2020 22:00 UTC Zobrazit data
Místo: Kocelovice
Teplota: 10 °C (pocitová: 6 °C)
Vítr: 3 m/s z(e) 40°
Počasí:
Dohlednost: 35 km
Zákl. oblačnosti: N/A
Vlhkost: 32%
Kopisty (Kopisty) 08.04.2020 21:00 UTC Zobrazit data
Místo: Kopisty
Teplota: 7 °C (pocitová: 17.5 °C)
Vítr: 0 m/s z(e) 0°
Počasí: slunečno
Dohlednost: 35 km
Zákl. oblačnosti: N/A
Vlhkost: 61%
Kostelní Myslová (K.Myslova) 08.04.2020 22:00 UTC Zobrazit data
Místo: Kostelní Myslová
Teplota: 9 °C (pocitová: 5.6 °C)
Vítr: 2 m/s z(e) 80°
Počasí:
Dohlednost: 35 km
Zákl. oblačnosti: N/A
Vlhkost: 34%
Křešín - Kramolín (Kramolin) 08.04.2020 22:00 UTC Zobrazit data
Místo: Křešín - Kramolín
Teplota: 8 °C (pocitová: 4.4 °C)
Vítr: 2 m/s z(e) 0°
Počasí:
Dohlednost: 35 km
Zákl. oblačnosti: N/A
Vlhkost: 40%
Kuchařovice - Znojmo (Kucharovic) 08.04.2020 22:00 UTC Zobrazit data
Místo: Kuchařovice - Znojmo
Teplota: 10 °C (pocitová: 6.9 °C)
Vítr: 2 m/s z(e) 80°
Počasí:
Dohlednost: 35 km
Zákl. oblačnosti: N/A
Vlhkost: 35%
Liberec (Liberec) 08.04.2020 22:00 UTC Zobrazit data
Místo: Liberec
Teplota: 11 °C (pocitová: 8.2 °C)
Vítr: 2 m/s z(e) 120°
Počasí:
Dohlednost: 35 km
Zákl. oblačnosti: N/A
Vlhkost: 28%
Luká (Luka) 08.04.2020 22:00 UTC Zobrazit data
Místo: Luká
Teplota: 11 °C (pocitová: 7.3 °C)
Vítr: 3 m/s z(e) 180°
Počasí:
Dohlednost: 35 km
Zákl. oblačnosti: N/A
Vlhkost: 26%
Lysá Hora (Lysa Hora) 08.04.2020 22:00 UTC Zobrazit data
Místo: Lysá Hora
Teplota: 7 °C (pocitová: 0.6 °C)
Vítr: 5 m/s z(e) 210°
Počasí:
Dohlednost: 35 km
Zákl. oblačnosti: N/A
Vlhkost: 31%
Milešovka (Milesovka) 08.04.2020 22:00 UTC Zobrazit data
Místo: Milešovka
Teplota: 11 °C (pocitová: 5 °C)
Vítr: 9 m/s z(e) 180°
Počasí: slunečno
Dohlednost: 60 km
Zákl. oblačnosti: N/A
Vlhkost: 28%
Mošnov (Ostrava/Mo) 08.04.2020 22:00 UTC Zobrazit data
Místo: Mošnov
Teplota: 5 °C (pocitová: 0.5 °C)
Vítr: 2 m/s z(e) 230°
Počasí: slunečno
Dohlednost: 35 km
Zákl. oblačnosti: N/A
Vlhkost: 61%
Náměšť nad Oslavou (Namest n/O) 08.04.2020 22:00 UTC Zobrazit data
Místo: Náměšť nad Oslavou
Teplota: 12 °C (pocitová: 9.5 °C)
Vítr: 2 m/s z(e) 80°
Počasí: slunečno
Dohlednost: 30 km
Zákl. oblačnosti: N/A
Vlhkost: 26%
Pardubice (Pardubice) 08.04.2020 22:00 UTC Zobrazit data
Místo: Pardubice
Teplota: 7 °C (pocitová: 2 °C)
Vítr: 3 m/s z(e) 80°
Počasí: slunečno
Dohlednost: 20 km
Zákl. oblačnosti: N/A
Vlhkost: 42%
Pec pod Sněžkou (Pec p.Snez) 08.04.2020 22:00 UTC Zobrazit data
Místo: Pec pod Sněžkou
Teplota: 2 °C (pocitová: -1.8 °C)
Vítr: 1 m/s z(e) 180°
Počasí:
Dohlednost: 35 km
Zákl. oblačnosti: N/A
Vlhkost: 60%
Plzeň město - Mikulka (Plzen/Miku) 08.04.2020 22:00 UTC Zobrazit data
Místo: Plzeň město - Mikulka
Teplota: 8 °C (pocitová: 5.5 °C)
Vítr: 1 m/s z(e) 0°
Počasí:
Dohlednost: 35 km
Zákl. oblačnosti: N/A
Vlhkost: 53%
Polom (Polom) 08.04.2020 22:00 UTC Zobrazit data
Místo: Polom
Teplota: 11 °C (pocitová: 6.7 °C)
Vítr: 4 m/s z(e) 160°
Počasí: slunečno
Dohlednost: 60 km
Zákl. oblačnosti: N/A
Vlhkost: 24%
Praha - Karlov (Praha/Kar) 08.04.2020 22:00 UTC Zobrazit data
Místo: Praha - Karlov
Teplota: 13 °C (pocitová: 10.8 °C)
Vítr: 2 m/s z(e) 180°
Počasí:
Dohlednost: 35 km
Zákl. oblačnosti: N/A
Vlhkost: 28%
Praha - Kbely (Praha/Kbe) 08.04.2020 22:00 UTC Zobrazit data
Místo: Praha - Kbely
Teplota: 12 °C (pocitová: 8 °C)
Vítr: 4 m/s z(e) 190°
Počasí: slunečno
Dohlednost: 20 km
Zákl. oblačnosti: N/A
Vlhkost: 28%
Praha - Libuš (Praha/Lib) 08.04.2020 22:00 UTC Zobrazit data
Místo: Praha - Libuš
Teplota: 13 °C (pocitová: 10.8 °C)
Vítr: 2 m/s z(e) 0°
Počasí:
Dohlednost: 35 km
Zákl. oblačnosti: N/A
Vlhkost: 26%
Praha - Ruzyně (Praha/Ru) 08.04.2020 22:00 UTC Zobrazit data
Místo: Praha - Ruzyně
Teplota: 10 °C (pocitová: 6 °C)
Vítr: 3 m/s z(e) 170°
Počasí: slunečno
Dohlednost: 50 km
Zákl. oblačnosti: N/A
Vlhkost: 32%
Přibyslav (Pribyslav) 08.04.2020 22:00 UTC Zobrazit data
Místo: Přibyslav
Teplota: 9 °C (pocitová: 3.4 °C)
Vítr: 5 m/s z(e) 100°
Počasí:
Dohlednost: 35 km
Zákl. oblačnosti: N/A
Vlhkost: 34%
Přimda (Primda) 08.04.2020 22:00 UTC Zobrazit data
Místo: Přimda
Teplota: 13 °C (pocitová: 11.7 °C)
Vítr: 1 m/s z(e) 150°
Počasí:
Dohlednost: 35 km
Zákl. oblačnosti: N/A
Vlhkost: 26%
Šerák (Serak) 08.04.2020 22:00 UTC Zobrazit data
Místo: Šerák
Teplota: 6 °C (pocitová: -1.7 °C)
Vítr: 7 m/s z(e) 230°
Počasí:
Dohlednost: 35 km
Zákl. oblačnosti: N/A
Vlhkost: 29%
Svratouch (Svratouch) 08.04.2020 22:00 UTC Zobrazit data
Místo: Svratouch
Teplota: 9 °C (pocitová: 2.6 °C)
Vítr: 7 m/s z(e) 190°
Počasí:
Dohlednost: 35 km
Zákl. oblačnosti: N/A
Vlhkost: 32%
Temelín (Temelin) 08.04.2020 22:00 UTC Zobrazit data
Místo: Temelín
Teplota: 10 °C (pocitová: 5.3 °C)
Vítr: 4 m/s z(e) 90°
Počasí:
Dohlednost: 35 km
Zákl. oblačnosti: N/A
Vlhkost: 35%
Ústí nad Labem - Kočkov (Usti n/L) 08.04.2020 22:00 UTC Zobrazit data
Místo: Ústí nad Labem - Kočkov
Teplota: 14 °C (pocitová: 12.9 °C)
Vítr: 1 m/s z(e) 0°
Počasí:
Dohlednost: 35 km
Zákl. oblačnosti: N/A
Vlhkost: 18%
Ústí nad Orlicí (Usti n/O) 08.04.2020 22:00 UTC Zobrazit data
Místo: Ústí nad Orlicí
Teplota: 5 °C (pocitová: 1.8 °C)
Vítr: 1 m/s z(e) 0°
Počasí:
Dohlednost: 25 km
Zákl. oblačnosti: N/A
Vlhkost: 53%
Aalborg (EKYT) 08.04.2020 21:50 UTC Zobrazit METAR
EKYT 082150Z AUTO 26011KT 9999 FEW100/// BKN130/// 08/05 Q1019
Aarhus (EKAH) 26.03.2020 11:50 UTC Zobrazit METAR
EKAH 261150Z 14009KT 100V190 CAVOK 10/M06 Q1031
Abu Dhabi (OMAA) 08.04.2020 22:00 UTC Zobrazit METAR
OMAA 082200Z 09005KT CAVOK 28/06 Q1009 NOSIG
Abuja (DNAA) 08.04.2020 22:00 UTC Zobrazit METAR
DNAA 082200Z 27002KT CAVOK 29/25 Q1011 NOSIG
Accra (DGAA) 08.04.2020 22:00 UTC Zobrazit METAR
DGAA 082200Z 22009KT 9999 FEW015 SCT017 29/26 Q1010 NOSIG
Addis Abeba (HAAB) 08.04.2020 22:00 UTC Zobrazit METAR
HAAB 082200Z 19002KT 9999 FEW025 16/05 Q1025
Agana (PGUM) 08.04.2020 21:54 UTC Zobrazit METAR
PGUM 082154Z 08012KT 10SM CLR 28/23 A2997 RMK AO2 SLP140 T02780228 $
Ahe Island (NTHE) Zatím nenačteno  
Akureyri (BIAR) 08.04.2020 22:00 UTC Zobrazit METAR
BIAR 082200Z 17007KT CAVOK M06/M09 Q1025 RMK WIND VADLAHEIDI 10004KT
Almaty (UAAA) Zatím nenačteno  
Amman (OJAM) 08.04.2020 22:00 UTC Zobrazit METAR
OJAM 082200Z 31004KT 8000 NSC 09/06 Q1015 NOSIG
Amsterdam (EHAM) 08.04.2020 21:55 UTC Zobrazit METAR
EHAM 082155Z 05004KT 020V080 CAVOK 11/07 Q1024 NOSIG
Antananarivo (FMMI) 08.04.2020 22:00 UTC Zobrazit METAR
FMMI 082200Z 13005KT 090V170 9999 FEW017 SCT020 18/16 Q1022 NOSIG
1 2 3 ... 9 Další
Reklama

Počasí na Váš email

Emaily jsou bez reklamy a bez spamu



Odhlásit newsletter

Reklama


Lunární kalendář

  • 15.04.
  • 23.04.
  • 30.04.
  • 07.05.





Vyhledat na internetu:
Reklama